Time;durP1;ratioP1;P1;durP2;ratioP2;P2;SDS_P1;SDS_P2;PMS_P1;PMS_P2;Temp;Humidity;BMP_temperature;BMP_pressure;BME280_temperature;BME280_humidity;BME280_pressure;Samples;Min_cycle;Max_cycle;Signal;HPM_P1;HPM_P2
2022/06/20 00:00:00;;;;;;;25.70;8.90;;;;;;;20.34;67.27;95349.31;2056756;28;20027;-62
2022/06/20 00:01:01;;;;;;;21.70;8.65;;;;;;;20.32;67.23;95347.81;2056701;28;20503;-61
2022/06/20 00:02:02;;;;;;;19.27;8.63;;;;;;;20.38;67.18;95348.03;2056102;28;20046;-61
2022/06/20 00:03:04;;;;;;;20.52;8.85;;;;;;;20.34;66.50;95346.69;2048693;28;20509;-62
2022/06/20 00:04:06;;;;;;;23.02;9.00;;;;;;;20.35;66.72;95339.59;2040495;28;20417;-62
2022/06/20 00:05:10;;;;;;;22.88;9.30;;;;;;;20.32;66.50;95340.72;2048503;29;20058;-63
2022/06/20 00:06:13;;;;;;;23.20;8.45;;;;;;;20.39;65.93;95335.66;2056897;28;20077;-63
2022/06/20 00:07:14;;;;;;;25.83;9.15;;;;;;;20.39;65.27;95344.41;2049328;28;20054;-63
2022/06/20 00:08:16;;;;;;;20.90;8.73;;;;;;;20.53;64.59;95329.03;2040847;28;20043;-63
2022/06/20 00:09:17;;;;;;;21.80;8.68;;;;;;;20.56;63.77;95334.06;2056807;28;20047;-65
2022/06/20 00:10:19;;;;;;;25.95;9.30;;;;;;;20.82;62.74;95336.78;2048126;28;20047;-63
2022/06/20 00:11:24;;;;;;;18.15;8.48;;;;;;;20.75;62.89;95333.94;2048573;28;20051;-63
2022/06/20 00:12:25;;;;;;;20.70;9.32;;;;;;;20.68;63.61;95336.31;2063989;28;20423;-65
2022/06/20 00:13:31;;;;;;;16.50;9.07;;;;;;;20.69;63.31;95332.72;2056944;28;20050;-62
2022/06/20 00:14:32;;;;;;;26.42;8.98;;;;;;;20.65;63.34;95339.25;2057436;28;20038;-63
2022/06/20 00:15:35;;;;;;;21.55;8.82;;;;;;;20.62;63.61;95336.09;2056679;28;20073;-63
2022/06/20 00:16:36;;;;;;;28.08;9.63;;;;;;;20.60;63.35;95341.53;2064900;28;20547;-64
2022/06/20 00:17:37;;;;;;;22.55;9.85;;;;;;;20.81;62.92;95341.22;2056485;28;20126;-64
2022/06/20 00:18:39;;;;;;;21.77;9.63;;;;;;;20.72;62.83;95333.41;2048758;28;20043;-62
2022/06/20 00:19:42;;;;;;;23.00;8.65;;;;;;;20.67;63.02;95336.50;2064826;28;20046;-63
2022/06/20 00:20:44;;;;;;;21.48;8.88;;;;;;;20.65;62.86;95338.44;2072441;28;20041;-63
2022/06/20 00:21:45;;;;;;;18.55;9.07;;;;;;;20.65;62.80;95334.00;2048783;29;20054;-63
2022/06/20 00:22:46;;;;;;;21.25;8.77;;;;;;;20.60;63.21;95340.69;2048748;28;20046;-63
2022/06/20 00:23:48;;;;;;;24.75;8.73;;;;;;;20.65;63.38;95336.63;2064453;28;20057;-65
2022/06/20 00:24:49;;;;;;;18.35;9.32;;;;;;;20.65;62.85;95344.53;2064616;28;20038;-63
2022/06/20 00:25:50;;;;;;;21.33;8.50;;;;;;;20.56;63.20;95337.53;2056725;28;20042;-64
2022/06/20 00:26:51;;;;;;;24.00;10.32;;;;;;;20.60;63.08;95338.88;2062082;28;20046;-61
2022/06/20 00:27:54;;;;;;;23.98;8.55;;;;;;;20.73;62.46;95335.06;2056717;28;20085;-63
2022/06/20 00:28:56;;;;;;;24.35;9.30;;;;;;;20.65;62.55;95341.91;2048334;28;20390;-63
2022/06/20 00:29:57;;;;;;;20.30;9.15;;;;;;;20.82;62.17;95339.41;2040660;28;20074;-63
2022/06/20 00:30:59;;;;;;;24.27;9.73;;;;;;;20.67;62.45;95339.94;2040419;29;20068;-63
2022/06/20 00:32:00;;;;;;;19.30;8.57;;;;;;;20.61;62.72;95337.91;2048531;28;20501;-66
2022/06/20 00:33:02;;;;;;;21.90;9.30;;;;;;;20.57;62.92;95335.72;2055923;28;20157;-63
2022/06/20 00:34:03;;;;;;;26.27;10.23;;;;;;;20.47;63.35;95343.66;2056554;28;20053;-62
2022/06/20 00:35:05;;;;;;;20.50;9.40;;;;;;;20.43;63.42;95340.50;2056425;28;20084;-63
2022/06/20 00:36:06;;;;;;;18.75;8.43;;;;;;;20.45;63.69;95350.91;2048568;29;20531;-63
2022/06/20 00:37:09;;;;;;;26.10;9.02;;;;;;;20.54;63.18;95346.59;2040591;28;20044;-63
2022/06/20 00:38:15;;;;;;;24.35;9.35;;;;;;;20.44;63.56;95349.25;2048682;28;20051;-63
2022/06/20 00:39:19;;;;;;;37.45;9.48;;;;;;;20.47;63.36;95351.56;2056733;28;20058;-63
2022/06/20 00:40:31;;;;;;;21.73;9.57;;;;;;;20.54;62.79;95349.22;2056137;28;20050;-63
2022/06/20 00:41:33;;;;;;;22.25;9.30;;;;;;;20.57;62.49;95346.28;2057336;28;20448;-64
2022/06/20 00:42:34;;;;;;;17.90;8.40;;;;;;;20.48;63.14;95346.16;2048456;28;20047;-63
2022/06/20 00:43:38;;;;;;;21.35;9.57;;;;;;;20.39;63.71;95348.84;2056284;28;20109;-63
2022/06/20 00:44:42;;;;;;;19.33;9.95;;;;;;;20.36;63.33;95346.50;2065333;28;20042;-61
2022/06/20 00:45:44;;;;;;;20.75;8.88;;;;;;;20.36;63.35;95355.25;2077749;23;20042;-61
2022/06/20 00:46:49;;;;;;;23.80;9.77;;;;;;;20.40;63.52;95353.16;2038000;28;20055;-62
2022/06/20 00:47:51;;;;;;;22.00;10.05;;;;;;;20.40;63.31;95354.00;2034185;29;20044;-64
2022/06/20 00:49:16;;;;;;;17.20;9.75;;;;;;;20.32;63.79;95353.91;2025001;29;20045;-61
2022/06/20 00:50:19;;;;;;;17.95;9.35;;;;;;;20.28;63.62;95355.16;2043348;29;20055;-63
2022/06/20 00:51:26;;;;;;;34.33;10.35;;;;;;;20.38;63.82;95358.56;2043784;29;20042;-64
2022/06/20 00:52:50;;;;;;;19.15;8.70;;;;;;;20.50;63.09;95361.81;2040358;29;20107;-62
2022/06/20 00:53:56;;;;;;;22.48;9.63;;;;;;;20.33;63.72;95368.72;2051313;28;20039;-61
2022/06/20 00:55:01;;;;;;;23.95;9.43;;;;;;;20.33;63.72;95360.81;2048121;29;20441;-63
2022/06/20 00:56:11;;;;;;;22.15;8.55;;;;;;;20.31;63.66;95354.03;2049044;28;20051;-64
2022/06/20 00:57:17;;;;;;;22.02;9.68;;;;;;;20.36;63.49;95357.06;2048714;29;20082;-63
2022/06/20 00:58:38;;;;;;;22.95;9.32;;;;;;;20.36;63.82;95359.69;2032133;29;20063;-62
2022/06/20 00:59:43;;;;;;;22.58;9.82;;;;;;;20.32;64.22;95358.34;2030202;29;20538;-63
2022/06/20 01:00:44;;;;;;;22.67;8.68;;;;;;;20.51;62.93;95360.88;2032945;29;20043;-62
2022/06/20 01:01:45;;;;;;;25.73;9.52;;;;;;;20.40;63.20;95356.63;2017791;29;20432;-61
2022/06/20 01:02:49;;;;;;;18.58;9.15;;;;;;;20.34;63.48;95359.00;2024770;29;20048;-62
2022/06/20 01:03:52;;;;;;;19.05;9.30;;;;;;;20.24;64.07;95367.81;2040782;29;20513;-63
2022/06/20 01:04:57;;;;;;;25.98;9.95;;;;;;;20.20;64.23;95360.34;2040624;29;20053;-62
2022/06/20 01:06:04;;;;;;;20.25;9.73;;;;;;;20.13;64.33;95372.44;2033839;29;20056;-61
2022/06/20 01:07:07;;;;;;;18.35;9.25;;;;;;;20.15;64.25;95363.41;2032810;29;20071;-63
2022/06/20 01:08:15;;;;;;;23.02;8.88;;;;;;;20.09;64.62;95368.44;2025893;29;20048;-62
2022/06/20 01:09:16;;;;;;;22.00;9.32;;;;;;;20.01;64.98;95363.91;2047982;29;20047;-62
2022/06/20 01:10:18;;;;;;;22.00;9.65;;;;;;;20.00;65.01;95368.34;2048110;29;20054;-64
2022/06/20 01:11:22;;;;;;;28.58;10.35;;;;;;;20.00;65.01;95365.72;2040306;29;20063;-63
2022/06/20 01:12:24;;;;;;;20.55;9.20;;;;;;;19.95;65.08;95365.31;2033970;29;20553;-61
2022/06/20 01:13:26;;;;;;;23.50;9.27;;;;;;;20.05;64.49;95365.28;2032967;29;20107;-63
2022/06/20 01:14:34;;;;;;;15.77;8.73;;;;;;;20.11;64.53;95366.50;2032556;29;20522;-62
2022/06/20 01:15:37;;;;;;;24.02;10.40;;;;;;;20.01;64.65;95366.53;2040917;29;20517;-62
2022/06/20 01:16:38;;;;;;;21.02;9.73;;;;;;;19.96;65.00;95359.06;2040209;29;20039;-61
2022/06/20 01:17:40;;;;;;;22.58;10.20;;;;;;;20.10;64.69;95359.56;2040386;29;20571;-62
2022/06/20 01:18:42;;;;;;;20.33;9.43;;;;;;;20.05;64.42;95366.09;2039895;29;20047;-62
2022/06/20 01:19:59;;;;;;;23.42;9.52;;;;;;;19.93;65.26;95363.81;2025194;29;20056;-62
2022/06/20 01:21:00;;;;;;;27.02;10.02;;;;;;;20.14;64.46;95360.94;2036970;29;20068;-60
2022/06/20 01:22:05;;;;;;;16.33;9.38;;;;;;;20.17;63.98;95360.63;2040400;29;20103;-59
2022/06/20 01:23:29;;;;;;;24.58;9.60;;;;;;;19.98;65.01;95365.03;2033725;29;20056;-60
2022/06/20 01:24:31;;;;;;;23.05;9.43;;;;;;;19.81;65.07;95356.09;2043318;29;20054;-60
2022/06/20 01:25:52;;;;;;;21.40;10.15;;;;;;;19.80;65.34;95369.38;2040600;29;20063;-59
2022/06/20 01:27:32;;;;;;;23.70;10.75;;;;;;;19.75;65.46;95367.22;2053505;28;20043;-58
2022/06/20 01:28:36;;;;;;;21.60;9.85;;;;;;;19.94;64.88;95363.66;2048608;28;20046;-59
2022/06/20 01:29:37;;;;;;;20.65;9.82;;;;;;;19.98;64.63;95361.56;2040984;28;20054;-58
2022/06/20 01:30:40;;;;;;;26.33;9.75;;;;;;;19.92;64.98;95364.78;2047857;29;20058;-59
2022/06/20 01:31:45;;;;;;;24.48;10.10;;;;;;;19.87;65.01;95364.38;2048170;29;20098;-59
2022/06/20 01:32:46;;;;;;;21.33;9.85;;;;;;;19.81;65.94;95360.53;2041397;28;20047;-60
2022/06/20 01:33:47;;;;;;;18.73;9.30;;;;;;;19.82;65.22;95362.19;2032193;29;20055;-60
2022/06/20 01:34:49;;;;;;;20.92;10.27;;;;;;;19.83;65.04;95358.56;2040539;28;20051;-61
2022/06/20 01:38:24;;;;;;;21.50;9.60;;;;;;;19.75;65.56;95361.09;2055605;28;20046;-60
2022/06/20 01:39:26;;;;;;;22.08;10.32;;;;;;;19.71;65.64;95357.91;2048892;28;20055;-60
2022/06/20 01:40:27;;;;;;;22.10;10.35;;;;;;;19.61;66.02;95352.63;2047997;29;20074;-60
2022/06/20 01:42:50;;;;;;;20.35;8.95;;;;;;;19.53;66.46;95355.16;2037966;29;20485;-60
2022/06/20 01:43:52;;;;;;;24.15;10.00;;;;;;;19.63;65.75;95356.94;2032781;29;20056;-58
2022/06/20 01:44:58;;;;;;;24.17;9.88;;;;;;;19.57;66.61;95359.19;2033103;29;20051;-59
2022/06/20 01:47:01;;;;;;;18.65;9.68;;;;;;;19.52;66.58;95358.78;2048209;28;20484;-60
2022/06/20 01:48:06;;;;;;;22.50;10.43;;;;;;;19.66;66.29;95361.94;2040040;29;20513;-60
2022/06/20 01:49:13;;;;;;;25.95;10.27;;;;;;;19.75;65.43;95361.09;2040047;29;20058;-60
2022/06/20 01:50:15;;;;;;;19.23;9.30;;;;;;;19.64;65.98;95363.88;2040862;29;20476;-60
2022/06/20 01:51:23;;;;;;;23.13;9.32;;;;;;;19.57;66.38;95359.19;2048461;28;20051;-60
2022/06/20 01:52:29;;;;;;;21.67;9.43;;;;;;;19.54;66.23;95361.25;2032733;29;20056;-59
2022/06/20 01:53:31;;;;;;;23.80;10.00;;;;;;;19.53;66.20;95367.50;2040871;29;20526;-60
2022/06/20 01:54:44;;;;;;;21.55;9.90;;;;;;;19.52;66.77;95368.50;2036239;29;20048;-59
2022/06/20 01:55:47;;;;;;;20.20;9.32;;;;;;;19.54;66.34;95364.75;2035140;29;20048;-60
2022/06/20 01:56:48;;;;;;;26.02;9.90;;;;;;;19.59;66.07;95361.66;2039813;29;20062;-59
2022/06/20 01:57:52;;;;;;;20.45;10.30;;;;;;;19.66;66.12;95360.16;2047217;29;20047;-61
2022/06/20 01:58:59;;;;;;;19.83;9.07;;;;;;;19.75;65.71;95369.00;2047520;29;20058;-60
2022/06/20 02:00:04;;;;;;;24.42;10.15;;;;;;;19.72;66.32;95366.66;2032952;29;20048;-60
2022/06/20 02:01:05;;;;;;;25.17;9.73;;;;;;;19.60;66.43;95364.16;2040045;29;20107;-60
2022/06/20 02:02:07;;;;;;;25.50;10.32;;;;;;;19.60;66.66;95358.88;2040326;29;20047;-60
2022/06/20 02:03:11;;;;;;;22.15;9.52;;;;;;;19.54;66.52;95358.63;2039647;29;20062;-60
2022/06/20 02:04:17;;;;;;;20.15;9.38;;;;;;;19.54;66.72;95364.75;2040800;29;20056;-61
2022/06/20 02:05:21;;;;;;;24.05;9.80;;;;;;;19.47;67.12;95362.81;2048145;29;20047;-60
2022/06/20 02:06:22;;;;;;;22.63;10.50;;;;;;;19.49;66.84;95364.34;2038993;29;20545;-60
2022/06/20 02:07:23;;;;;;;18.77;9.30;;;;;;;19.51;66.84;95356.28;2024105;29;20060;-59
2022/06/20 02:08:24;;;;;;;22.98;9.50;;;;;;;19.56;66.80;95364.56;2040138;29;20517;-60
2022/06/20 02:09:26;;;;;;;20.38;10.07;;;;;;;19.58;67.05;95354.75;2039939;29;20429;-59
2022/06/20 02:10:32;;;;;;;20.67;9.65;;;;;;;19.67;66.53;95358.34;2040578;29;20048;-60
2022/06/20 02:11:35;;;;;;;18.38;9.60;;;;;;;19.69;66.24;95361.66;2040561;29;20526;-60
2022/06/20 02:12:38;;;;;;;22.33;10.23;;;;;;;19.69;66.05;95364.31;2033265;29;20048;-60
2022/06/20 02:13:41;;;;;;;22.02;9.73;;;;;;;19.67;66.56;95366.25;2040595;29;20045;-60
2022/06/20 02:14:46;;;;;;;22.35;10.63;;;;;;;19.59;66.98;95359.88;2040349;29;20047;-60
2022/06/20 02:15:49;;;;;;;21.67;9.48;;;;;;;19.80;66.02;95374.66;2033242;29;20506;-59
2022/06/20 02:16:55;;;;;;;20.80;9.63;;;;;;;19.88;65.73;95361.59;2032941;29;20047;-58
2022/06/20 02:17:56;;;;;;;21.27;9.60;;;;;;;19.96;65.19;95368.78;2025401;29;20055;-60
2022/06/20 02:18:59;;;;;;;19.88;9.27;;;;;;;20.00;65.41;95364.88;2031979;29;20075;-58
2022/06/20 02:20:02;;;;;;;22.38;9.80;;;;;;;19.95;65.80;95360.03;2047810;29;20070;-60
2022/06/20 02:21:05;;;;;;;20.15;9.55;;;;;;;19.82;65.25;95347.19;2032536;29;20056;-60
2022/06/20 02:22:07;;;;;;;21.67;10.73;;;;;;;19.96;65.31;95366.97;2040309;29;20080;-61
2022/06/20 02:23:08;;;;;;;23.67;10.02;;;;;;;19.97;65.38;95366.00;2032801;29;20414;-58
2022/06/20 02:24:13;;;;;;;20.75;9.70;;;;;;;19.93;65.59;95367.25;2024658;29;20055;-59
2022/06/20 02:25:16;;;;;;;20.02;9.98;;;;;;;19.94;65.99;95363.66;2033247;29;20526;-60
2022/06/20 02:26:18;;;;;;;20.02;10.13;;;;;;;19.94;65.84;95368.94;2040138;29;20051;-60
2022/06/20 02:27:24;;;;;;;19.88;10.20;;;;;;;19.95;65.60;95372.41;2031378;29;20438;-61
2022/06/20 02:28:30;;;;;;;22.35;9.68;;;;;;;19.94;65.57;95371.56;2028151;29;20057;-61
2022/06/20 02:29:32;;;;;;;20.15;10.13;;;;;;;19.92;65.68;95364.78;2034717;29;20052;-60
2022/06/20 02:30:34;;;;;;;21.75;9.85;;;;;;;19.88;65.52;95366.03;2034173;28;20060;-59
2022/06/20 02:31:36;;;;;;;23.42;9.45;;;;;;;19.84;65.98;95365.50;2057321;28;20093;-60
2022/06/20 02:32:40;;;;;;;19.83;9.68;;;;;;;19.82;65.83;95370.09;2049505;29;20521;-59
2022/06/20 02:33:41;;;;;;;21.77;9.93;;;;;;;19.89;65.15;95362.41;2050250;28;20039;-60
2022/06/20 02:34:43;;;;;;;20.42;9.63;;;;;;;19.84;65.45;95365.50;2049565;29;20043;-58
2022/06/20 02:35:44;;;;;;;24.92;9.70;;;;;;;19.82;65.69;95372.72;2041673;29;20044;-59
2022/06/20 02:36:45;;;;;;;22.00;9.68;;;;;;;19.79;65.88;95373.00;2041485;29;20055;-59
2022/06/20 02:37:46;;;;;;;19.73;8.85;;;;;;;19.78;65.61;95364.28;2049904;28;20051;-59
2022/06/20 02:38:48;;;;;;;24.85;9.77;;;;;;;19.74;66.09;95368.16;2040773;29;20051;-60
2022/06/20 02:39:51;;;;;;;20.63;8.85;;;;;;;19.73;66.51;95368.31;2042131;29;20062;-59
2022/06/20 02:40:52;;;;;;;21.45;9.48;;;;;;;19.79;65.85;95368.56;2049027;29;20047;-58
2022/06/20 02:41:58;;;;;;;19.05;9.23;;;;;;;19.94;65.28;95366.31;2041451;28;20078;-60
2022/06/20 02:43:03;;;;;;;20.02;10.27;;;;;;;19.82;65.84;95362.19;2042064;29;20047;-61
2022/06/20 02:44:08;;;;;;;20.42;9.45;;;;;;;19.73;66.69;95368.31;2034015;29;20059;-60
2022/06/20 02:45:11;;;;;;;20.17;9.55;;;;;;;19.71;66.15;95365.00;2042861;28;20059;-60
2022/06/20 02:46:14;;;;;;;23.02;9.88;;;;;;;19.63;67.00;95363.03;2041213;29;20051;-60
2022/06/20 02:47:16;;;;;;;21.83;10.10;;;;;;;19.52;66.69;95364.03;2038711;29;20060;-59
2022/06/20 02:48:17;;;;;;;19.65;9.73;;;;;;;19.44;66.93;95357.84;2034704;29;20062;-60
2022/06/20 02:49:20;;;;;;;18.98;10.18;;;;;;;19.39;67.29;95361.72;2025581;29;20048;-59
2022/06/20 02:50:22;;;;;;;22.27;9.48;;;;;;;19.35;67.46;95364.75;2033998;29;20076;-59
2022/06/20 02:51:26;;;;;;;19.33;8.95;;;;;;;19.27;67.58;95351.47;2026189;29;20526;-60
2022/06/20 02:52:32;;;;;;;18.75;9.38;;;;;;;19.30;67.89;95356.44;2034187;29;20055;-60
2022/06/20 02:53:38;;;;;;;21.88;10.10;;;;;;;19.28;67.92;95356.63;2041464;29;20051;-59
2022/06/20 02:54:39;;;;;;;23.92;10.05;;;;;;;19.27;67.64;95357.59;2027980;29;20044;-60
2022/06/20 02:55:41;;;;;;;26.27;10.57;;;;;;;19.21;68.26;95365.22;2033430;29;20545;-57
2022/06/20 02:56:44;;;;;;;20.55;9.80;;;;;;;19.20;67.94;95364.38;2033694;29;20055;-59
2022/06/20 02:57:48;;;;;;;17.05;9.48;;;;;;;19.13;68.82;95366.72;2041941;29;20043;-59
2022/06/20 02:58:59;;;;;;;25.17;10.15;;;;;;;19.11;68.28;95360.81;2033730;29;20044;-59
2022/06/20 03:00:00;;;;;;;25.90;10.25;;;;;;;19.10;68.39;95363.56;2036694;29;20048;-60
2022/06/20 03:01:05;;;;;;;17.83;8.88;;;;;;;19.12;68.40;95364.25;2049621;29;20051;-60
2022/06/20 03:02:09;;;;;;;22.63;10.23;;;;;;;19.10;68.24;95368.81;2048507;29;20058;-60
2022/06/20 03:03:15;;;;;;;22.95;10.32;;;;;;;19.08;68.66;95358.41;2041314;29;20043;-61
2022/06/20 03:04:16;;;;;;;21.55;9.43;;;;;;;19.06;68.39;95364.78;2041645;29;20418;-60
2022/06/20 03:05:18;;;;;;;18.27;9.50;;;;;;;19.03;68.70;95362.44;2033918;29;20127;-60
2022/06/20 03:06:25;;;;;;;24.27;10.13;;;;;;;19.03;68.88;95358.03;2026396;29;20530;-60
2022/06/20 03:07:27;;;;;;;23.33;9.50;;;;;;;19.07;68.62;95358.59;2028164;29;20052;-59
2022/06/20 03:08:29;;;;;;;18.55;9.88;;;;;;;19.05;68.49;95358.72;2048528;29;20055;-59
2022/06/20 03:09:32;;;;;;;25.15;10.13;;;;;;;19.05;68.68;95358.72;2025754;29;20053;-59
2022/06/20 03:10:36;;;;;;;22.85;10.52;;;;;;;19.03;69.08;95357.19;2026799;29;20056;-59
2022/06/20 03:11:37;;;;;;;18.98;9.77;;;;;;;19.00;68.97;95354.84;2041700;29;20500;-60
2022/06/20 03:12:39;;;;;;;20.58;9.63;;;;;;;19.00;69.06;95350.41;2032942;29;20039;-59
2022/06/20 03:13:40;;;;;;;18.40;9.05;;;;;;;18.97;69.03;95350.69;2041461;29;20047;-60
2022/06/20 03:14:46;;;;;;;24.20;9.98;;;;;;;18.98;69.00;95354.13;2049991;28;20043;-59
2022/06/20 03:15:47;;;;;;;17.77;9.13;;;;;;;18.97;69.03;95355.94;2041507;28;20047;-59
2022/06/20 03:16:49;;;;;;;20.30;9.93;;;;;;;18.98;68.94;95359.41;2048501;28;20047;-60
2022/06/20 03:17:50;;;;;;;20.88;9.50;;;;;;;18.89;69.90;95356.63;2040936;29;20047;-60
2022/06/20 03:18:52;;;;;;;24.67;9.77;;;;;;;18.86;69.49;95354.28;2033861;29;20040;-58
2022/06/20 03:19:55;;;;;;;19.58;9.38;;;;;;;18.92;69.25;95358.16;2048534;28;20067;-60
2022/06/20 03:20:56;;;;;;;25.70;10.15;;;;;;;18.90;68.77;95350.44;2041550;29;20425;-60
2022/06/20 03:22:01;;;;;;;20.42;9.18;;;;;;;19.00;68.03;95354.84;2040993;28;20513;-58
2022/06/20 03:23:08;;;;;;;21.65;9.90;;;;;;;18.94;68.43;95353.59;2049114;29;20058;-59
2022/06/20 03:24:10;;;;;;;27.92;9.88;;;;;;;18.90;68.95;95365.38;2041690;29;20525;-60
2022/06/20 03:25:12;;;;;;;17.63;9.98;;;;;;;18.82;69.11;95357.31;2041466;29;20433;-60
2022/06/20 03:26:17;;;;;;;26.50;9.90;;;;;;;18.91;68.59;95349.44;2048581;29;20054;-60
2022/06/20 03:27:28;;;;;;;21.05;9.45;;;;;;;18.87;68.65;95365.63;2047498;28;20106;-60
2022/06/20 03:28:30;;;;;;;21.98;10.15;;;;;;;18.84;69.20;95364.09;2042491;29;20059;-60
2022/06/20 03:29:31;;;;;;;22.35;10.43;;;;;;;18.97;68.41;95355.94;2041508;28;20052;-60
2022/06/20 03:30:34;;;;;;;23.85;10.10;;;;;;;18.93;68.82;95358.03;2048751;28;20051;-59
2022/06/20 03:31:35;;;;;;;21.08;9.52;;;;;;;19.03;68.58;95363.31;2041315;29;20533;-59
2022/06/20 03:32:36;;;;;;;16.23;8.93;;;;;;;19.02;68.15;95352.91;2048374;28;20073;-59
2022/06/20 03:33:38;;;;;;;19.92;10.20;;;;;;;19.08;67.85;95366.31;2057189;28;20055;-59
2022/06/20 03:34:39;;;;;;;23.38;10.07;;;;;;;19.13;67.30;95368.53;2049132;29;20050;-59
2022/06/20 03:35:43;;;;;;;21.17;10.20;;;;;;;19.08;67.56;95371.56;2033900;29;20048;-60
2022/06/20 03:36:47;;;;;;;15.20;9.25;;;;;;;19.01;68.11;95367.88;2041447;28;20074;-60
2022/06/20 03:37:48;;;;;;;18.45;9.30;;;;;;;18.99;67.80;95371.59;2056955;28;20528;-60
2022/06/20 03:38:49;;;;;;;20.38;9.30;;;;;;;19.08;67.38;95376.03;2055864;28;20484;-60
2022/06/20 03:39:51;;;;;;;25.88;9.48;;;;;;;19.13;67.10;95382.53;2049300;28;20043;-59
2022/06/20 03:40:52;;;;;;;22.30;10.50;;;;;;;19.10;67.40;95379.34;2049000;29;20516;-57
2022/06/20 03:41:53;;;;;;;17.75;9.52;;;;;;;19.14;67.19;95391.28;2057258;28;20047;-60
2022/06/20 03:42:55;;;;;;;18.02;9.82;;;;;;;19.08;68.17;95386.53;2048949;29;20055;-60
2022/06/20 03:44:03;;;;;;;18.42;9.40;;;;;;;19.01;67.75;95386.28;2041821;29;20054;-61
2022/06/20 03:45:05;;;;;;;23.27;9.65;;;;;;;19.08;69.36;95392.63;2043087;28;20062;-59
2022/06/20 03:46:14;;;;;;;22.88;9.68;;;;;;;19.08;69.60;95387.38;2036875;29;20048;-59
2022/06/20 03:47:20;;;;;;;16.92;9.45;;;;;;;19.11;69.22;95396.78;2027260;29;20057;-60
2022/06/20 03:48:24;;;;;;;24.50;10.90;;;;;;;19.10;69.06;95390.69;2027236;29;20450;-60
2022/06/20 03:49:40;;;;;;;22.73;10.05;;;;;;;19.13;69.08;95395.69;2034499;29;20067;-60
2022/06/20 03:50:46;;;;;;;19.88;9.43;;;;;;;19.15;69.08;95392.91;2048982;29;20062;-60
2022/06/20 03:51:51;;;;;;;14.63;8.82;;;;;;;19.16;68.89;95391.94;2033576;29;20530;-61
2022/06/20 03:53:19;;;;;;;21.90;9.98;;;;;;;19.33;68.34;95393.88;2041319;29;20051;-60
2022/06/20 03:54:26;;;;;;;17.83;9.52;;;;;;;19.33;68.77;95398.31;2039802;29;20051;-60
2022/06/20 03:55:32;;;;;;;19.05;9.40;;;;;;;19.43;67.35;95399.09;2033692;29;20445;-61
2022/06/20 03:56:38;;;;;;;19.67;9.43;;;;;;;19.47;67.69;95399.69;2041932;29;20051;-61
2022/06/20 03:57:47;;;;;;;18.17;9.15;;;;;;;19.55;66.73;95392.72;2040924;29;20067;-60
2022/06/20 03:59:00;;;;;;;16.27;8.70;;;;;;;19.55;66.75;95398.00;2034415;29;20048;-59
2022/06/20 04:00:06;;;;;;;21.70;9.68;;;;;;;19.67;66.27;95403.13;2041134;29;20161;-60
2022/06/20 04:01:18;;;;;;;17.77;9.52;;;;;;;19.78;65.13;95397.66;2049278;29;20051;-60
2022/06/20 04:02:22;;;;;;;17.80;10.02;;;;;;;19.87;65.49;95396.00;2033886;29;20055;-59
2022/06/20 04:03:34;;;;;;;17.75;9.07;;;;;;;19.86;65.33;95400.44;2033967;29;20048;-60
2022/06/20 04:04:43;;;;;;;19.27;9.40;;;;;;;19.90;65.41;95407.06;2042393;29;20493;-59
2022/06/20 04:05:48;;;;;;;16.35;8.35;;;;;;;19.98;64.85;95407.19;2047566;29;20043;-59
2022/06/20 04:06:57;;;;;;;25.95;9.45;;;;;;;20.10;64.49;95409.63;2040963;29;20063;-60
2022/06/20 04:08:04;;;;;;;17.63;9.65;;;;;;;20.16;64.15;95402.00;2042686;29;20055;-61
2022/06/20 04:12:02;;;;;;;15.93;8.38;;;;;;;20.40;61.34;95396.19;2046976;29;20047;-59
2022/06/20 04:13:09;;;;;;;18.98;8.93;;;;;;;20.41;63.09;95408.38;2041028;29;20055;-59
2022/06/20 04:14:16;;;;;;;20.27;8.80;;;;;;;20.45;62.86;95408.94;2041471;29;20059;-60
2022/06/20 04:15:21;;;;;;;19.17;9.02;;;;;;;20.54;62.25;95415.16;2040741;29;20052;-61
2022/06/20 04:16:26;;;;;;;13.57;7.90;;;;;;;20.74;60.66;95408.75;2033860;29;20457;-58
2022/06/20 04:19:06;;;;;;;19.00;8.82;;;;;;;20.96;58.85;95417.25;2040642;29;20051;-58
2022/06/20 04:20:15;;;;;;;20.35;9.07;;;;;;;21.01;59.10;95414.97;2034996;29;20044;-59
2022/06/20 04:21:37;;;;;;;20.40;8.93;;;;;;;21.17;58.67;95422.19;2034303;29;20059;-60
2022/06/20 04:22:38;;;;;;;14.05;8.38;;;;;;;21.17;59.40;95428.34;2036182;29;20703;-60
2022/06/20 04:23:49;;;;;;;14.70;8.65;;;;;;;21.20;58.87;95424.53;2032617;29;20048;-59
2022/06/20 04:24:53;;;;;;;23.23;8.88;;;;;;;21.24;58.21;95426.72;2034653;29;20059;-59
2022/06/20 04:26:14;;;;;;;15.65;8.38;;;;;;;21.35;57.76;95425.66;2041247;29;20056;-60
2022/06/20 04:27:35;;;;;;;19.95;8.55;;;;;;;21.41;57.86;95434.81;2051419;28;20049;-60
2022/06/20 04:28:44;;;;;;;21.35;9.02;;;;;;;21.36;57.33;95435.28;2051072;28;20043;-59
2022/06/20 04:29:47;;;;;;;21.67;8.05;;;;;;;21.51;56.65;95446.13;2049261;28;20054;-60
2022/06/20 04:30:53;;;;;;;23.65;8.52;;;;;;;;;;2040243;29;20040;-59
2022/06/20 04:32:00;;;;;;;21.58;8.35;;;;;;;21.65;56.56;95440.31;2041667;28;20051;-59
2022/06/20 04:33:26;;;;;;;20.08;9.50;;;;;;;21.61;57.01;95452.16;2055503;28;20098;-60
2022/06/20 04:34:45;;;;;;;19.25;8.40;;;;;;;21.64;57.35;95443.09;2059835;28;20046;-60
2022/06/20 04:36:12;;;;;;;22.02;8.65;;;;;;;21.63;58.08;95452.03;2056306;28;20050;-59
2022/06/20 04:37:35;;;;;;;21.55;8.65;;;;;;;21.74;57.17;95454.41;2051607;28;20046;-61
2022/06/20 04:38:36;;;;;;;20.65;8.68;;;;;;;21.82;56.70;95449.19;2056501;28;20054;-59
2022/06/20 04:39:46;;;;;;;21.65;8.13;;;;;;;21.88;55.28;95447.72;2048837;28;20443;-59
2022/06/20 04:40:52;;;;;;;13.88;8.32;;;;;;;21.87;55.84;95456.66;2050279;28;20047;-63
2022/06/20 04:41:56;;;;;;;20.63;8.45;;;;;;;21.72;57.24;95451.91;2049094;28;20042;-63
2022/06/20 04:43:15;;;;;;;15.77;8.18;;;;;;;21.63;58.80;95465.22;2048625;28;20159;-61
2022/06/20 04:44:21;;;;;;;14.95;7.75;;;;;;;21.75;56.18;95462.16;2056690;28;20062;-63
2022/06/20 04:45:32;;;;;;;16.20;8.85;;;;;;;21.74;57.90;95463.16;2056528;28;20062;-62
2022/06/20 04:46:39;;;;;;;15.38;8.07;;;;;;;21.54;58.87;95469.59;2041888;29;20047;-64
2022/06/20 04:47:52;;;;;;;16.35;8.82;;;;;;;21.60;59.08;95466.38;2038558;29;20059;-64
2022/06/20 04:48:53;;;;;;;15.68;8.65;;;;;;;21.74;57.95;95481.66;2042071;29;20039;-59
2022/06/20 04:49:55;;;;;;;18.90;8.75;;;;;;;21.68;58.57;95484.94;2041519;29;20032;-60
2022/06/20 04:50:58;;;;;;;18.60;9.07;;;;;;;21.50;60.29;95481.47;2033255;29;20067;-61
2022/06/20 04:52:00;;;;;;;15.95;8.50;;;;;;;21.35;59.94;95492.50;2040963;29;20055;-60
2022/06/20 04:53:05;;;;;;;18.83;8.57;;;;;;;21.64;59.52;95488.84;2041607;29;20047;-59
2022/06/20 04:54:12;;;;;;;18.52;8.65;;;;;;;21.91;58.63;95493.16;2019578;29;20056;-59
2022/06/20 04:55:16;;;;;;;16.20;8.30;;;;;;;21.96;57.80;95490.91;2012903;29;20057;-60
2022/06/20 04:56:26;;;;;;;18.23;8.57;;;;;;;22.05;57.73;95488.31;2027963;29;20048;-61
2022/06/20 04:57:29;;;;;;;23.55;8.50;;;;;;;22.16;57.33;95486.25;2027388;29;20564;-61
2022/06/20 04:58:34;;;;;;;23.27;8.63;;;;;;;22.12;57.81;95482.25;2034511;29;20075;-60
2022/06/20 04:59:35;;;;;;;15.93;8.48;;;;;;;22.07;58.89;95479.25;2047980;29;20077;-59
2022/06/20 05:00:40;;;;;;;23.20;9.45;;;;;;;22.05;59.42;95485.66;2026123;29;20408;-59
2022/06/20 05:01:41;;;;;;;18.33;9.00;;;;;;;22.26;56.78;95493.25;2034077;29;20055;-60
2022/06/20 05:02:43;;;;;;;23.05;9.13;;;;;;;22.40;54.43;95492.66;2033397;29;20410;-59
2022/06/20 05:03:46;;;;;;;18.17;9.07;;;;;;;22.32;57.65;95495.28;2018424;29;20057;-60
2022/06/20 05:04:49;;;;;;;20.55;9.10;;;;;;;22.22;57.37;95500.69;2034134;29;20047;-59
2022/06/20 05:05:52;;;;;;;19.95;9.20;;;;;;;22.21;58.52;95499.00;2048783;29;20063;-58
2022/06/20 05:06:54;;;;;;;18.23;9.15;;;;;;;22.34;56.41;95498.59;2039835;29;20544;-59
2022/06/20 05:07:55;;;;;;;22.38;9.00;;;;;;;22.33;57.32;95496.94;2033626;29;20056;-59
2022/06/20 05:09:04;;;;;;;15.93;8.05;;;;;;;22.35;56.42;95509.03;2048570;29;20047;-60
2022/06/20 05:10:12;;;;;;;20.67;9.57;;;;;;;22.30;56.70;95507.84;2033299;29;20055;-59